createdAt,value
2019-01-08T00:01:20.435Z,97316.44
2019-01-08T00:03:52.262Z,97315.84
2019-01-08T00:06:24.101Z,97305.25
2019-01-08T00:08:55.851Z,97302.39
2019-01-08T00:11:27.592Z,97286.30
2019-01-08T00:13:59.428Z,97281.74
2019-01-08T00:16:31.179Z,97271.11
2019-01-08T00:19:02.945Z,97258.69
2019-01-08T00:21:35.206Z,97250.68
2019-01-08T00:24:06.958Z,97257.05
2019-01-08T00:26:38.698Z,97249.47
2019-01-08T00:29:10.466Z,97242.74
2019-01-08T00:31:42.469Z,97240.94
2019-01-08T00:34:14.221Z,97235.59
2019-01-08T00:36:45.966Z,97230.58
2019-01-08T00:39:17.807Z,97227.55
2019-01-08T00:41:49.562Z,97222.59
2019-01-08T00:44:21.319Z,97204.84
2019-01-08T00:46:53.067Z,97205.41
2019-01-08T00:49:24.872Z,97203.47
2019-01-08T00:51:56.609Z,97192.29
2019-01-08T00:54:28.380Z,97191.53
2019-01-08T00:57:00.124Z,97194.09
2019-01-08T00:59:32.234Z,97178.72
2019-01-08T01:02:04.068Z,97169.84
2019-01-08T01:04:35.832Z,97171.70
2019-01-08T01:07:07.579Z,97162.66
2019-01-08T01:09:39.404Z,97162.28
2019-01-08T01:12:11.222Z,97172.50
2019-01-08T01:14:43.242Z,97169.59
2019-01-08T01:17:14.994Z,97167.47
2019-01-08T01:19:46.755Z,97151.02
2019-01-08T01:22:18.503Z,97152.70
2019-01-08T01:24:50.248Z,97140.20
2019-01-08T01:27:22.005Z,97138.05
2019-01-08T01:29:53.787Z,97121.41
2019-01-08T01:32:25.552Z,97126.56
2019-01-08T01:34:57.311Z,97119.17
2019-01-08T01:37:29.061Z,97114.45
2019-01-08T01:40:00.830Z,97108.27
2019-01-08T01:42:32.584Z,97094.92
2019-01-08T01:45:04.501Z,97085.97
2019-01-08T01:47:36.323Z,97087.55
2019-01-08T01:50:08.511Z,97073.67
2019-01-08T01:52:40.253Z,97070.69
2019-01-08T01:55:12.091Z,97065.43
2019-01-08T01:57:43.836Z,97064.06
2019-01-08T02:00:15.745Z,97049.24
2019-01-08T02:02:47.498Z,97052.58
2019-01-08T02:05:19.269Z,97046.48
2019-01-08T02:07:51.168Z,97041.84
2019-01-08T02:10:22.934Z,97038.33
2019-01-08T02:12:54.672Z,97028.14
2019-01-08T02:15:26.438Z,97020.74
2019-01-08T02:17:58.175Z,97020.11
2019-01-08T02:20:29.937Z,97015.27
2019-01-08T02:23:01.680Z,97013.72
2019-01-08T02:25:33.490Z,97010.67
2019-01-08T02:28:05.305Z,97001.31
2019-01-08T02:30:37.063Z,96993.55
2019-01-08T02:33:09.483Z,96993.00
2019-01-08T02:35:41.325Z,96980.97
2019-01-08T02:38:13.069Z,96989.11
2019-01-08T02:40:44.830Z,96969.14
2019-01-08T02:43:16.830Z,96970.44
2019-01-08T02:45:48.661Z,96962.67
2019-01-08T02:48:20.421Z,96957.11
2019-01-08T02:50:53.225Z,96955.45
2019-01-08T02:53:25.099Z,96957.31
2019-01-08T02:55:56.866Z,96947.30
2019-01-08T02:58:28.740Z,96935.69
2019-01-08T03:01:00.658Z,96918.11
2019-01-08T03:03:32.472Z,96925.33
2019-01-08T03:06:04.317Z,96914.48
2019-01-08T03:08:36.218Z,96909.22
2019-01-08T03:11:08.250Z,96896.81
2019-01-08T03:13:40.964Z,96895.89
2019-01-08T03:16:12.807Z,96877.20
2019-01-08T03:18:44.624Z,96870.52
2019-01-08T03:21:16.391Z,96864.42
2019-01-08T03:23:48.151Z,96861.37
2019-01-08T03:26:19.902Z,96849.11
2019-01-08T03:28:51.655Z,96844.69
2019-01-08T03:31:23.431Z,96838.84
2019-01-08T03:33:55.169Z,96842.79
2019-01-08T03:36:27.082Z,96846.31
2019-01-08T03:38:58.986Z,96835.56
2019-01-08T03:41:31.068Z,96832.45
2019-01-08T03:44:02.829Z,96830.69
2019-01-08T03:46:34.653Z,96833.27
2019-01-08T03:49:06.493Z,96822.44
2019-01-08T03:51:38.569Z,96825.03
2019-01-08T03:54:10.325Z,96817.80
2019-01-08T03:56:42.149Z,96811.36
2019-01-08T03:59:14.150Z,96815.80
2019-01-08T04:01:46.042Z,96804.51
2019-01-08T04:04:17.781Z,96804.01
2019-01-08T04:06:49.513Z,96805.78
2019-01-08T04:09:21.252Z,96796.16
2019-01-08T04:11:53.064Z,96787.85
2019-01-08T04:14:24.818Z,96782.30
2019-01-08T04:16:56.633Z,96772.49
2019-01-08T04:19:28.451Z,96769.70
2019-01-08T04:22:00.259Z,96765.86
2019-01-08T04:24:32.084Z,96756.69
2019-01-08T04:27:03.907Z,96756.29
2019-01-08T04:29:35.726Z,96748.56
2019-01-08T04:32:07.531Z,96748.68
2019-01-08T04:34:39.270Z,96740.27
2019-01-08T04:37:11.974Z,96739.59
2019-01-08T04:39:43.711Z,96739.09
2019-01-08T04:42:15.460Z,96746.66
2019-01-08T04:44:47.215Z,96729.05
2019-01-08T04:47:18.957Z,96724.92
2019-01-08T04:49:50.708Z,96721.72
2019-01-08T04:52:22.471Z,96724.98
2019-01-08T04:54:54.615Z,96722.20
2019-01-08T04:57:26.379Z,96721.81
2019-01-08T04:59:59.140Z,96725.05
2019-01-08T05:02:32.091Z,96718.41
2019-01-08T05:05:05.304Z,96716.17
2019-01-08T05:07:37.016Z,96711.05
2019-01-08T05:10:09.661Z,96707.00
2019-01-08T05:12:41.460Z,96702.91
2019-01-08T05:15:13.200Z,96700.80
2019-01-08T05:17:44.942Z,96691.73
2019-01-08T05:20:16.759Z,96680.48
2019-01-08T05:22:48.650Z,96682.56
2019-01-08T05:25:20.398Z,96670.73
2019-01-08T05:27:52.201Z,96660.88
2019-01-08T05:30:23.943Z,96654.91
2019-01-08T05:32:55.737Z,96657.05
2019-01-08T05:35:27.584Z,96653.58
2019-01-08T05:37:59.383Z,96651.27
2019-01-08T05:40:31.379Z,96649.98
2019-01-08T05:43:03.440Z,96640.16
2019-01-08T05:45:35.185Z,96643.91
2019-01-08T05:48:06.907Z,96623.67
2019-01-08T05:50:38.974Z,96628.58
2019-01-08T05:53:10.959Z,96625.16
2019-01-08T05:55:42.697Z,96628.16
2019-01-08T05:58:14.437Z,96624.81
2019-01-08T06:00:46.182Z,96620.09
2019-01-08T06:03:18.424Z,96619.34
2019-01-08T06:05:50.168Z,96619.94
2019-01-08T06:08:21.904Z,96620.41
2019-01-08T06:10:53.645Z,96620.77
2019-01-08T06:13:25.537Z,96621.31
2019-01-08T06:15:57.279Z,96629.34
2019-01-08T06:18:29.191Z,96630.19
2019-01-08T06:21:01.348Z,96633.74
2019-01-08T06:23:33.260Z,96629.04
2019-01-08T06:26:05.150Z,96633.64
2019-01-08T06:28:36.947Z,96639.23
2019-01-08T06:31:09.807Z,96636.07
2019-01-08T06:33:41.617Z,96642.89
2019-01-08T06:36:13.447Z,96640.90
2019-01-08T06:38:45.265Z,96642.68
2019-01-08T06:41:17.188Z,96638.88
2019-01-08T06:43:48.927Z,96644.19
2019-01-08T06:46:20.810Z,96645.63
2019-01-08T06:48:52.652Z,96643.03
2019-01-08T06:51:24.757Z,96646.45
2019-01-08T06:53:56.591Z,96648.08
2019-01-08T06:56:28.285Z,96649.38
2019-01-08T06:59:00.036Z,96651.59
2019-01-08T07:01:32.174Z,96648.69
2019-01-08T07:04:03.947Z,96634.86
2019-01-08T07:06:35.831Z,96643.34
2019-01-08T07:09:08.446Z,96635.91
2019-01-08T07:11:40.519Z,96629.99
2019-01-08T07:14:12.254Z,96614.41
2019-01-08T07:16:45.107Z,96620.57
2019-01-08T07:19:16.888Z,96614.41
2019-01-08T07:21:48.736Z,96616.34
2019-01-08T07:24:20.857Z,96620.81
2019-01-08T07:26:53.093Z,96624.25
2019-01-08T07:29:24.833Z,96616.23
2019-01-08T07:31:56.639Z,96615.50
2019-01-08T07:34:28.425Z,96611.61
2019-01-08T07:37:00.178Z,96608.68
2019-01-08T07:39:31.998Z,96604.09
2019-01-08T07:42:03.913Z,96604.78
2019-01-08T07:44:35.827Z,96595.00
2019-01-08T07:47:07.652Z,96593.70
2019-01-08T07:49:39.452Z,96578.78
2019-01-08T07:52:11.245Z,96586.73
2019-01-08T07:54:43.060Z,96591.50
2019-01-08T07:57:14.808Z,96604.61
2019-01-08T07:59:46.802Z,96592.47
2019-01-08T08:02:18.626Z,96591.27
2019-01-08T08:04:50.433Z,96594.42
2019-01-08T08:07:22.436Z,96599.61
2019-01-08T08:09:54.429Z,96590.73
2019-01-08T08:12:26.328Z,96581.53
2019-01-08T08:14:58.135Z,96577.97
2019-01-08T08:17:29.973Z,96583.73
2019-01-08T08:20:01.855Z,96588.93
2019-01-08T08:22:33.612Z,96583.91
2019-01-08T08:25:06.280Z,96573.77
2019-01-08T08:27:38.023Z,96575.92
2019-01-08T08:30:10.593Z,96572.45
2019-01-08T08:32:42.352Z,96572.63
2019-01-08T08:35:14.484Z,96573.69
2019-01-08T08:37:46.308Z,96576.43
2019-01-08T08:40:18.500Z,96575.20
2019-01-08T08:42:50.617Z,96560.59
2019-01-08T08:45:22.602Z,96558.63
2019-01-08T08:47:54.615Z,96546.80
2019-01-08T08:50:26.488Z,96546.48
2019-01-08T08:52:58.268Z,96544.22
2019-01-08T08:55:30.114Z,96553.31
2019-01-08T08:58:01.949Z,96548.25
2019-01-08T09:00:34.029Z,96559.13
2019-01-08T09:03:06.851Z,96540.02
2019-01-08T09:05:38.630Z,96549.21
2019-01-08T09:08:10.404Z,96543.45
2019-01-08T09:10:42.171Z,96543.34
2019-01-08T09:13:14.168Z,96538.50
2019-01-08T09:15:46.005Z,96541.46
2019-01-08T09:18:17.867Z,96533.41
2019-01-08T09:20:49.683Z,96537.45
2019-01-08T09:23:21.719Z,96537.20
2019-01-08T09:25:53.856Z,96540.27
2019-01-08T09:28:25.730Z,96547.27
2019-01-08T09:30:57.645Z,96549.25
2019-01-08T09:33:29.390Z,96541.60
2019-01-08T09:36:01.199Z,96542.53
2019-01-08T09:38:33.409Z,96537.09
2019-01-08T09:41:05.232Z,96538.16
2019-01-08T09:43:37.316Z,96537.44
2019-01-08T09:46:09.734Z,96540.19
2019-01-08T09:48:42.535Z,96540.39
2019-01-08T09:51:14.388Z,96535.69
2019-01-08T09:53:46.378Z,96536.37
2019-01-08T09:56:18.266Z,96521.48
2019-01-08T09:58:50.137Z,96519.24
2019-01-08T10:01:24.064Z,96511.07
2019-01-08T10:03:55.790Z,96507.05
2019-01-08T10:06:27.855Z,96504.91
2019-01-08T10:08:59.601Z,96507.89
2019-01-08T10:11:31.339Z,96497.20
2019-01-08T10:14:03.212Z,96490.21
2019-01-08T10:16:35.023Z,96492.00
2019-01-08T10:19:06.776Z,96477.56
2019-01-08T10:21:38.586Z,96471.77
2019-01-08T10:24:10.344Z,96468.34
2019-01-08T10:26:42.120Z,96450.96
2019-01-08T10:29:14.272Z,96454.63
2019-01-08T10:31:45.986Z,96445.98
2019-01-08T10:34:19.170Z,96445.98
2019-01-08T10:36:50.908Z,96446.70
2019-01-08T10:39:22.977Z,96444.08
2019-01-08T10:41:54.783Z,96445.26
2019-01-08T10:44:26.678Z,96433.79
2019-01-08T10:46:58.415Z,96446.30
2019-01-08T10:49:30.183Z,96448.19
2019-01-08T10:52:02.446Z,96446.30
2019-01-08T10:54:34.349Z,96444.17
2019-01-08T10:57:06.222Z,96449.37
2019-01-08T10:59:37.960Z,96436.58
2019-01-08T11:02:09.778Z,96422.26
2019-01-08T11:04:41.527Z,96430.42
2019-01-08T11:07:13.351Z,96427.47
2019-01-08T11:09:45.118Z,96427.80
2019-01-08T11:12:16.848Z,96426.46
2019-01-08T11:14:48.663Z,96415.42
2019-01-08T11:17:20.396Z,96411.20
2019-01-08T11:19:52.175Z,96417.08
2019-01-08T11:22:25.293Z,96413.97
2019-01-08T11:24:57.371Z,96414.95
2019-01-08T11:27:29.114Z,96412.19
2019-01-08T11:30:00.874Z,96412.55
2019-01-08T11:32:32.684Z,96405.53
2019-01-08T11:35:04.571Z,96389.98
2019-01-08T11:37:36.309Z,96385.34
2019-01-08T11:40:09.557Z,96388.07
2019-01-08T11:42:41.372Z,96377.89
2019-01-08T11:45:13.260Z,96385.91
2019-01-08T11:47:45.062Z,96382.62
2019-01-08T11:50:16.812Z,96372.20
2019-01-08T11:52:48.607Z,96370.88
2019-01-08T11:55:20.671Z,96351.34
2019-01-08T11:57:52.395Z,96335.61
2019-01-08T12:00:24.311Z,96340.31
2019-01-08T12:02:56.286Z,96343.12
2019-01-08T12:05:28.029Z,96331.48
2019-01-08T12:08:00.087Z,96348.06
2019-01-08T12:10:32.316Z,96343.16
2019-01-08T12:13:05.392Z,96335.95
2019-01-08T12:15:37.208Z,96330.70
2019-01-08T12:18:09.746Z,96328.14
2019-01-08T12:20:41.556Z,96315.48
2019-01-08T12:23:13.295Z,96314.07
2019-01-08T12:25:45.040Z,96306.27
2019-01-08T12:28:16.783Z,96301.77
2019-01-08T12:30:48.935Z,96299.75
2019-01-08T12:33:20.752Z,96289.09
2019-01-08T12:35:52.935Z,96279.82
2019-01-08T12:38:24.736Z,96276.75
2019-01-08T12:40:56.477Z,96280.38
2019-01-08T12:43:28.230Z,96281.84
2019-01-08T12:46:00.033Z,96278.00
2019-01-08T12:48:31.779Z,96274.66
2019-01-08T12:51:03.850Z,96280.70
2019-01-08T12:53:35.603Z,96295.53
2019-01-08T12:56:07.342Z,96280.95
2019-01-08T12:58:39.067Z,96284.54
2019-01-08T13:01:11.149Z,96288.20
2019-01-08T13:03:42.871Z,96300.66
2019-01-08T13:06:14.609Z,96286.43
2019-01-08T13:08:46.605Z,96275.03
2019-01-08T13:11:18.435Z,96286.50
2019-01-08T13:13:50.149Z,96304.20
2019-01-08T13:16:22.027Z,96300.30
2019-01-08T13:18:53.768Z,96300.68
2019-01-08T13:21:25.506Z,96293.86
2019-01-08T13:23:57.371Z,96295.30
2019-01-08T13:26:29.135Z,96289.16
2019-01-08T13:29:00.862Z,96290.11
2019-01-08T13:31:32.608Z,96281.51
2019-01-08T13:34:04.600Z,96276.39
2019-01-08T13:36:36.433Z,96278.38
2019-01-08T13:39:09.368Z,96261.20
2019-01-08T13:41:41.116Z,96258.76
2019-01-08T13:44:12.842Z,96256.04
2019-01-08T13:46:44.656Z,96262.98
2019-01-08T13:49:16.391Z,96258.41
2019-01-08T13:51:48.129Z,96258.05
2019-01-08T13:54:19.862Z,96258.79
2019-01-08T13:56:51.609Z,96257.78
2019-01-08T13:59:23.350Z,96251.52
2019-01-08T14:01:55.164Z,96253.09
2019-01-08T14:04:26.893Z,96255.89
2019-01-08T14:06:59.620Z,96256.40
2019-01-08T14:09:31.422Z,96249.43
2019-01-08T14:12:03.236Z,96247.45
2019-01-08T14:14:34.968Z,96248.69
2019-01-08T14:17:07.112Z,96259.58
2019-01-08T14:19:38.909Z,96247.69
2019-01-08T14:22:10.673Z,96257.94
2019-01-08T14:24:43.441Z,96249.31
2019-01-08T14:27:15.243Z,96252.86
2019-01-08T14:29:46.989Z,96253.09
2019-01-08T14:32:18.825Z,96252.27
2019-01-08T14:34:50.566Z,96249.19
2019-01-08T14:37:22.309Z,96258.05
2019-01-08T14:39:54.057Z,96250.37
2019-01-08T14:42:25.891Z,96259.91
2019-01-08T14:44:57.707Z,96244.84
2019-01-08T14:47:29.455Z,96240.51
2019-01-08T14:50:02.962Z,96243.34
2019-01-08T14:52:34.785Z,96239.20
2019-01-08T14:55:06.965Z,96239.47
2019-01-08T14:57:38.781Z,96229.05
2019-01-08T15:00:11.687Z,96236.52
2019-01-08T15:02:49.472Z,96230.49
2019-01-08T15:05:17.495Z,96236.09
2019-01-08T15:07:49.246Z,96215.97
2019-01-08T15:10:20.982Z,96214.93
2019-01-08T15:12:52.828Z,96226.36
2019-01-08T15:15:24.728Z,96219.36
2019-01-08T15:17:56.477Z,96226.45
2019-01-08T15:20:28.287Z,96221.16
2019-01-08T15:23:00.206Z,96240.41
2019-01-08T15:25:32.111Z,96220.58
2019-01-08T15:28:04.119Z,96223.50
2019-01-08T15:30:35.864Z,96223.26
2019-01-08T15:33:07.701Z,96227.75
2019-01-08T15:35:39.567Z,96235.42
2019-01-08T15:38:11.417Z,96225.98
2019-01-08T15:40:43.154Z,96232.36
2019-01-08T15:43:15.145Z,96232.62
2019-01-08T15:45:46.866Z,96231.74
2019-01-08T15:48:18.926Z,96229.66
2019-01-08T15:50:50.740Z,96230.70
2019-01-08T15:53:22.563Z,96225.15
2019-01-08T15:55:54.292Z,96222.84
2019-01-08T15:58:26.087Z,96231.91
2019-01-08T16:00:57.786Z,96214.88
2019-01-08T16:03:29.529Z,96225.06
2019-01-08T16:06:01.348Z,96242.89
2019-01-08T16:08:33.232Z,96224.02
2019-01-08T16:11:05.036Z,96212.80
2019-01-08T16:13:36.781Z,96231.70
2019-01-08T16:16:09.641Z,96215.23
2019-01-08T16:18:41.401Z,96224.52
2019-01-08T16:21:13.140Z,96216.36
2019-01-08T16:23:44.875Z,96225.84
2019-01-08T16:26:16.678Z,96221.02
2019-01-08T16:28:48.564Z,96230.09
2019-01-08T16:31:20.300Z,96237.30
2019-01-08T16:33:52.050Z,96239.58
2019-01-08T16:36:23.925Z,96242.03
2019-01-08T16:38:55.740Z,96235.68
2019-01-08T16:41:27.537Z,96248.89
2019-01-08T16:43:59.524Z,96226.02
2019-01-08T16:46:31.318Z,96247.52
2019-01-08T16:49:03.211Z,96242.20
2019-01-08T16:51:35.005Z,96236.91
2019-01-08T16:54:06.743Z,96241.05
2019-01-08T16:56:38.471Z,96235.70
2019-01-08T16:59:10.346Z,96238.08
2019-01-08T17:01:42.144Z,96239.48
2019-01-08T17:04:13.977Z,96238.64
2019-01-08T17:06:45.944Z,96236.75
2019-01-08T17:09:18.984Z,96244.55
2019-01-08T17:11:51.416Z,96248.41
2019-01-08T17:14:23.361Z,96245.90
2019-01-08T17:16:55.174Z,96239.08
2019-01-08T17:19:26.998Z,96232.19
2019-01-08T17:21:58.968Z,96229.36
2019-01-08T17:24:30.786Z,96242.94
2019-01-08T17:27:02.508Z,96235.23
2019-01-08T17:29:34.712Z,96225.96
2019-01-08T17:32:06.866Z,96229.84
2019-01-08T17:34:38.632Z,96241.03
2019-01-08T17:37:10.589Z,96221.89
2019-01-08T17:39:42.479Z,96216.61
2019-01-08T17:42:14.421Z,96225.33
2019-01-08T17:44:46.162Z,96233.68
2019-01-08T17:47:18.212Z,96231.13
2019-01-08T17:49:49.991Z,96243.03
2019-01-08T17:52:22.283Z,96237.83
2019-01-08T17:54:54.169Z,96232.69
2019-01-08T17:57:27.451Z,96231.39
2019-01-08T17:59:59.254Z,96221.94
2019-01-08T18:02:31.109Z,96223.97
2019-01-08T18:05:02.900Z,96231.77
2019-01-08T18:07:34.709Z,96229.19
2019-01-08T18:10:08.622Z,96232.44
2019-01-08T18:12:40.423Z,96227.87
2019-01-08T18:15:12.153Z,96215.09
2019-01-08T18:17:44.094Z,96209.80
2019-01-08T18:20:16.047Z,96221.87
2019-01-08T18:22:47.948Z,96221.35
2019-01-08T18:25:19.911Z,96233.53
2019-01-08T18:27:51.875Z,96220.05
2019-01-08T18:30:23.955Z,96224.80
2019-01-08T18:32:55.908Z,96229.41
2019-01-08T18:35:27.826Z,96220.91
2019-01-08T18:37:59.934Z,96229.89
2019-01-08T18:40:31.872Z,96235.06
2019-01-08T18:43:03.906Z,96229.28
2019-01-08T18:45:36.949Z,96220.19
2019-01-08T18:48:09.251Z,96241.34
2019-01-08T18:50:41.141Z,96235.89
2019-01-08T18:53:13.076Z,96231.78
2019-01-08T18:55:44.837Z,96232.73
2019-01-08T18:58:16.782Z,96224.12
2019-01-08T19:00:48.700Z,96234.97
2019-01-08T19:03:20.931Z,96232.27
2019-01-08T19:05:53.333Z,96242.87
2019-01-08T19:09:02.786Z,96240.63
2019-01-08T19:11:34.539Z,96228.97
2019-01-08T19:14:06.594Z,96243.95
2019-01-08T19:16:38.616Z,96245.88
2019-01-08T19:19:11.790Z,96245.64
2019-01-08T19:21:44.121Z,96253.08
2019-01-08T19:24:16.010Z,96259.20
2019-01-08T19:26:48.138Z,96248.72
2019-01-08T19:29:20.339Z,96251.89
2019-01-08T19:31:52.081Z,96254.75
2019-01-08T19:34:23.815Z,96256.49
2019-01-08T19:36:55.984Z,96259.93
2019-01-08T19:39:27.815Z,96254.16
2019-01-08T19:42:00.522Z,96254.28
2019-01-08T19:44:32.262Z,96260.98
2019-01-08T19:47:04.160Z,96260.41
2019-01-08T19:49:35.943Z,96250.02
2019-01-08T19:52:07.946Z,96248.50
2019-01-08T19:54:40.027Z,96249.08
2019-01-08T19:57:11.976Z,96261.21
2019-01-08T19:59:43.836Z,96249.79
2019-01-08T20:02:15.766Z,96233.64
2019-01-08T20:04:47.638Z,96232.20
2019-01-08T20:07:19.541Z,96253.10
2019-01-08T20:09:51.563Z,96240.11
2019-01-08T20:12:23.538Z,96242.00
2019-01-08T20:14:55.670Z,96238.22
2019-01-08T20:17:27.655Z,96213.67
2019-01-08T20:19:59.472Z,96216.17
2019-01-08T20:22:31.500Z,96216.77
2019-01-08T20:25:03.387Z,96212.99
2019-01-08T20:27:35.314Z,96205.09
2019-01-08T20:30:07.825Z,96204.14
2019-01-08T20:32:39.843Z,96200.70
2019-01-08T20:35:11.802Z,96211.56
2019-01-08T20:37:43.888Z,96200.58
2019-01-08T20:40:15.848Z,96203.66
2019-01-08T20:42:48.000Z,96201.05
2019-01-08T20:45:19.863Z,96213.81
2019-01-08T20:47:51.802Z,96194.22
2019-01-08T20:50:23.995Z,96197.08
2019-01-08T20:52:58.014Z,96198.03
2019-01-08T20:55:29.459Z,96193.64
2019-01-08T20:58:01.221Z,96188.92
2019-01-08T21:00:33.194Z,96168.52
2019-01-08T21:03:05.444Z,96164.26
2019-01-08T21:05:37.277Z,96175.11
2019-01-08T21:08:09.757Z,96164.24
2019-01-08T21:10:41.661Z,96166.38
2019-01-08T21:13:13.908Z,96160.95
2019-01-08T21:15:45.778Z,96163.30
2019-01-08T21:18:17.722Z,96154.13
2019-01-08T21:20:49.510Z,96164.71
2019-01-08T21:23:21.816Z,96158.95
2019-01-08T21:25:53.775Z,96161.89
2019-01-08T21:28:25.784Z,96174.86
2019-01-08T21:30:57.702Z,96180.30
2019-01-08T21:33:29.560Z,96184.93
2019-01-08T21:36:01.344Z,96179.52
2019-01-08T21:38:33.311Z,96190.95
2019-01-08T21:41:05.124Z,96196.52
2019-01-08T21:43:37.101Z,96196.49
2019-01-08T21:46:10.040Z,96203.70
2019-01-08T21:48:42.008Z,96201.52
2019-01-08T21:51:13.864Z,96203.89
2019-01-08T21:53:45.773Z,96199.13
2019-01-08T21:56:17.643Z,96188.28
2019-01-08T21:58:49.457Z,96177.06
2019-01-08T22:01:21.581Z,96194.73
2019-01-08T22:03:53.389Z,96190.97
2019-01-08T22:06:25.261Z,96195.41
2019-01-08T22:08:57.242Z,96182.34
2019-01-08T22:11:29.332Z,96190.13
2019-01-08T22:14:01.208Z,96178.48
2019-01-08T22:16:34.057Z,96177.47
2019-01-08T22:19:06.021Z,96180.59
2019-01-08T22:21:37.861Z,96181.44
2019-01-08T22:24:09.801Z,96188.96
2019-01-08T22:26:41.726Z,96158.79
2019-01-08T22:29:13.626Z,96171.10
2019-01-08T22:31:45.611Z,96164.63
2019-01-08T22:34:18.050Z,96167.02
2019-01-08T22:36:50.361Z,96167.62
2019-01-08T22:39:22.490Z,96165.03
2019-01-08T22:41:54.838Z,96164.20
2019-01-08T22:44:26.813Z,96164.56
2019-01-08T22:46:58.838Z,96149.12
2019-01-08T22:49:30.725Z,96166.32
2019-01-08T22:52:02.587Z,96143.22
2019-01-08T22:54:34.527Z,96141.34
2019-01-08T22:57:07.104Z,96143.69
2019-01-08T22:59:39.588Z,96138.28
2019-01-08T23:02:12.237Z,96149.37
2019-01-08T23:04:44.200Z,96160.31
2019-01-08T23:07:16.189Z,96146.06
2019-01-08T23:09:48.217Z,96149.70
2019-01-08T23:12:20.515Z,96143.11
2019-01-08T23:14:52.440Z,96138.28
2019-01-08T23:17:24.366Z,96143.00
2019-01-08T23:19:56.895Z,96143.36
2019-01-08T23:22:28.782Z,96126.63
2019-01-08T23:25:02.291Z,96143.69
2019-01-08T23:27:34.257Z,96137.81
2019-01-08T23:30:07.901Z,96128.86
2019-01-08T23:32:39.850Z,96131.34
2019-01-08T23:35:19.356Z,96123.92
2019-01-08T23:37:45.559Z,96126.25
2019-01-08T23:40:17.749Z,96127.80
2019-01-08T23:42:49.679Z,96123.80
2019-01-08T23:45:21.843Z,96110.70
2019-01-08T23:47:53.762Z,96122.50
2019-01-08T23:50:25.939Z,96122.50
2019-01-08T23:53:08.373Z,96109.77
2019-01-08T23:55:50.981Z,96111.77
2019-01-08T23:58:23.060Z,96113.19
